createdAt,value
2022-12-03T00:00:33.990Z,87.63
2022-12-03T00:03:08.181Z,88.55
2022-12-03T00:05:48.865Z,88.19
2022-12-03T00:08:22.099Z,87.95
2022-12-03T00:10:54.895Z,88.06
2022-12-03T00:13:28.003Z,88.26
2022-12-03T00:16:00.812Z,88.27
2022-12-03T00:18:34.978Z,87.53
2022-12-03T00:21:08.182Z,87.08
2022-12-03T00:23:42.405Z,87.41
2022-12-03T00:26:15.551Z,88.04
2022-12-03T00:28:48.662Z,87.59
2022-12-03T00:31:23.297Z,87.70
2022-12-03T00:33:57.561Z,87.59
2022-12-03T00:36:30.362Z,87.47
2022-12-03T00:39:03.189Z,87.40
2022-12-03T00:41:36.152Z,87.35
2022-12-03T00:44:08.932Z,87.96
2022-12-03T00:46:41.820Z,87.58
2022-12-03T00:49:15.990Z,87.40
2022-12-03T00:51:48.866Z,87.06
2022-12-03T00:54:24.476Z,87.15
2022-12-03T00:56:59.973Z,88.14
2022-12-03T00:59:32.813Z,87.30
2022-12-03T01:02:05.666Z,87.77
2022-12-03T01:04:39.962Z,86.98
2022-12-03T01:07:12.834Z,87.20
2022-12-03T01:09:45.810Z,87.42
2022-12-03T01:12:18.623Z,87.96
2022-12-03T01:14:51.666Z,87.73
2022-12-03T01:17:24.688Z,88.55
2022-12-03T01:19:59.100Z,87.80
2022-12-03T01:22:31.957Z,86.84
2022-12-03T01:25:05.330Z,88.18
2022-12-03T01:27:38.141Z,87.76
2022-12-03T01:30:12.980Z,87.77
2022-12-03T01:32:44.821Z,88.22
2022-12-03T01:35:20.151Z,87.94
2022-12-03T01:37:53.001Z,87.88
2022-12-03T01:40:25.985Z,87.93
2022-12-03T01:42:58.829Z,88.55
2022-12-03T01:45:31.820Z,88.81
2022-12-03T01:48:04.835Z,89.04
2022-12-03T01:50:39.087Z,89.02
2022-12-03T01:53:16.678Z,88.79
2022-12-03T01:55:49.486Z,88.64
2022-12-03T01:58:27.640Z,88.82
2022-12-03T02:01:05.411Z,88.71
2022-12-03T02:03:38.562Z,88.85
2022-12-03T02:06:16.879Z,89.29
2022-12-03T02:08:50.775Z,89.01
2022-12-03T02:11:28.865Z,89.41
2022-12-03T02:14:04.252Z,89.51
2022-12-03T02:16:38.747Z,90.15
2022-12-03T02:19:19.076Z,89.98
2022-12-03T02:22:00.834Z,89.95
2022-12-03T02:24:42.947Z,90.33
2022-12-03T02:27:17.092Z,90.20
2022-12-03T02:29:49.977Z,90.91
2022-12-03T02:32:23.830Z,90.40
2022-12-03T02:34:56.768Z,89.79
2022-12-03T02:37:33.351Z,90.64
2022-12-03T02:40:12.223Z,90.94
2022-12-03T02:42:45.897Z,90.98
2022-12-03T02:45:22.151Z,90.30
2022-12-03T02:47:58.314Z,90.97
2022-12-03T02:50:34.265Z,90.44
2022-12-03T02:53:10.988Z,90.69
2022-12-03T02:55:43.834Z,90.55
2022-12-03T02:58:19.122Z,90.64
2022-12-03T03:00:54.770Z,90.55
2022-12-03T03:03:29.730Z,90.43
2022-12-03T03:06:03.279Z,90.07
2022-12-03T03:08:37.818Z,90.21
2022-12-03T03:11:10.853Z,90.43
2022-12-03T03:13:45.406Z,90.63
2022-12-03T03:16:18.238Z,90.21
2022-12-03T03:18:51.156Z,89.90
2022-12-03T03:21:24.064Z,90.19
2022-12-03T03:23:56.883Z,90.68
2022-12-03T03:26:29.874Z,91.05
2022-12-03T03:29:04.124Z,91.59
2022-12-03T03:31:37.369Z,90.07
2022-12-03T03:34:11.198Z,90.97
2022-12-03T03:36:45.113Z,90.57
2022-12-03T03:39:18.060Z,90.55
2022-12-03T03:41:50.911Z,90.18
2022-12-03T03:44:25.174Z,89.39
2022-12-03T03:46:58.602Z,90.40
2022-12-03T03:49:31.450Z,89.71
2022-12-03T03:52:06.049Z,89.34
2022-12-03T03:54:39.942Z,90.05
2022-12-03T03:57:13.145Z,89.45
2022-12-03T03:59:47.480Z,90.17
2022-12-03T04:02:21.934Z,90.29
2022-12-03T04:04:55.807Z,90.54
2022-12-03T04:07:28.872Z,90.21
2022-12-03T04:10:21.756Z,89.26
2022-12-03T04:12:56.648Z,90.17
2022-12-03T04:15:30.840Z,89.73
2022-12-03T04:18:21.104Z,88.75
2022-12-03T04:21:14.763Z,89.97
2022-12-03T04:23:46.566Z,89.21
2022-12-03T04:26:37.136Z,89.60
2022-12-03T04:29:10.019Z,89.29
2022-12-03T04:32:01.838Z,87.94
2022-12-03T04:34:52.596Z,88.71
2022-12-03T04:37:25.699Z,87.64
2022-12-03T04:39:58.513Z,89.17
2022-12-03T04:42:31.384Z,88.63
2022-12-03T04:45:04.255Z,88.78
2022-12-03T04:47:40.005Z,88.48
2022-12-03T04:50:13.006Z,89.03
2022-12-03T04:52:45.806Z,88.61
2022-12-03T04:55:21.274Z,88.57
2022-12-03T04:57:54.163Z,88.80
2022-12-03T05:00:27.048Z,88.65
2022-12-03T05:03:01.298Z,88.71
2022-12-03T05:05:34.122Z,89.17
2022-12-03T05:08:08.221Z,88.53
2022-12-03T05:10:41.140Z,88.80
2022-12-03T05:13:14.052Z,88.24
2022-12-03T05:15:47.232Z,89.39
2022-12-03T05:18:21.387Z,88.85
2022-12-03T05:20:54.287Z,88.70
2022-12-03T05:23:27.116Z,88.89
2022-12-03T05:25:59.911Z,88.50
2022-12-03T05:28:32.690Z,88.34
2022-12-03T05:31:05.827Z,88.88
2022-12-03T05:33:44.219Z,88.99
2022-12-03T05:36:17.463Z,88.70
2022-12-03T05:38:50.295Z,89.01
2022-12-03T05:41:40.713Z,88.27
2022-12-03T05:44:18.858Z,89.10
2022-12-03T05:46:53.256Z,88.36
2022-12-03T05:49:27.515Z,88.90
2022-12-03T05:52:00.367Z,88.13
2022-12-03T05:54:33.295Z,87.64
2022-12-03T05:57:06.138Z,87.90
2022-12-03T05:59:38.931Z,87.67
2022-12-03T06:02:11.981Z,87.13
2022-12-03T06:04:46.286Z,87.45
2022-12-03T06:07:19.162Z,87.56
2022-12-03T06:09:51.941Z,87.32
2022-12-03T06:12:24.720Z,87.84
2022-12-03T06:14:57.571Z,86.96
2022-12-03T06:17:30.401Z,87.87
2022-12-03T06:20:05.863Z,86.38
2022-12-03T06:22:38.611Z,87.71
2022-12-03T06:25:11.605Z,87.29
2022-12-03T06:27:44.751Z,86.72
2022-12-03T06:30:17.709Z,87.15
2022-12-03T06:32:50.473Z,87.40
2022-12-03T06:35:24.593Z,86.66
2022-12-03T06:37:57.424Z,87.23
2022-12-03T06:40:32.729Z,86.74
2022-12-03T06:43:05.563Z,86.98
2022-12-03T06:45:42.052Z,86.01
2022-12-03T06:48:17.527Z,86.76
2022-12-03T06:50:51.725Z,85.85
2022-12-03T06:53:24.720Z,85.92
2022-12-03T06:55:57.543Z,86.50
2022-12-03T06:58:30.335Z,85.64
2022-12-03T07:01:03.122Z,85.55
2022-12-03T07:03:35.935Z,84.93
2022-12-03T07:06:10.105Z,86.05
2022-12-03T07:08:43.067Z,86.07
2022-12-03T07:11:29.775Z,86.13
2022-12-03T07:14:05.798Z,86.12
2022-12-03T07:16:39.752Z,86.24
2022-12-03T07:19:12.900Z,86.17
2022-12-03T07:21:47.195Z,85.95
2022-12-03T07:24:19.976Z,86.41
2022-12-03T07:26:53.170Z,85.70
2022-12-03T07:29:25.963Z,85.59
2022-12-03T07:31:58.753Z,85.41
2022-12-03T07:34:31.554Z,85.89
2022-12-03T07:37:05.791Z,85.97
2022-12-03T07:39:38.745Z,86.05
2022-12-03T07:42:11.515Z,86.15
2022-12-03T07:44:44.371Z,85.86
2022-12-03T07:47:17.212Z,86.29
2022-12-03T07:49:50.072Z,86.25
2022-12-03T07:52:24.185Z,86.17
2022-12-03T07:54:56.952Z,86.32
2022-12-03T07:57:29.762Z,85.95
2022-12-03T08:00:02.648Z,85.76
2022-12-03T08:02:37.961Z,85.86
2022-12-03T08:05:11.389Z,86.27
2022-12-03T08:07:45.965Z,86.15
2022-12-03T08:10:19.243Z,86.00
2022-12-03T08:12:53.584Z,85.79
2022-12-03T08:15:31.145Z,85.81
2022-12-03T08:18:15.032Z,86.17
2022-12-03T08:20:49.419Z,86.45
2022-12-03T08:23:25.209Z,86.07
2022-12-03T08:26:02.003Z,86.28
2022-12-03T08:28:34.777Z,86.64
2022-12-03T08:31:18.530Z,85.79
2022-12-03T08:33:53.627Z,86.01
2022-12-03T08:36:27.676Z,86.24
2022-12-03T08:39:08.121Z,84.88
2022-12-03T08:41:58.288Z,84.90
2022-12-03T08:44:36.313Z,85.40
2022-12-03T08:47:17.075Z,86.01
2022-12-03T08:49:55.763Z,85.83
2022-12-03T08:52:35.549Z,85.29
2022-12-03T08:55:34.420Z,86.16
2022-12-03T08:58:22.636Z,85.56
2022-12-03T09:00:59.317Z,85.05
2022-12-03T09:03:33.068Z,85.68
2022-12-03T09:06:06.636Z,85.04
2022-12-03T09:08:39.392Z,84.53
2022-12-03T09:11:13.908Z,83.66
2022-12-03T09:13:46.660Z,84.66
2022-12-03T09:16:19.796Z,83.64
2022-12-03T09:18:52.964Z,83.69
2022-12-03T09:21:25.795Z,82.89
2022-12-03T09:23:58.603Z,84.31
2022-12-03T09:26:32.689Z,84.19
2022-12-03T09:29:10.578Z,83.71
2022-12-03T09:31:45.385Z,83.87
2022-12-03T09:34:18.398Z,83.32
2022-12-03T09:36:51.224Z,82.74
2022-12-03T09:39:24.028Z,82.09
2022-12-03T09:41:58.349Z,82.12
2022-12-03T09:44:33.650Z,81.68
2022-12-03T09:47:07.848Z,81.69
2022-12-03T09:49:41.099Z,80.85
2022-12-03T09:52:20.870Z,81.63
2022-12-03T09:54:54.550Z,81.80
2022-12-03T09:57:28.995Z,80.89
2022-12-03T10:00:02.051Z,80.49
2022-12-03T10:02:35.956Z,80.69
2022-12-03T10:05:09.956Z,80.66
2022-12-03T10:07:43.242Z,80.84
2022-12-03T10:10:17.231Z,81.00
2022-12-03T10:12:51.827Z,80.96
2022-12-03T10:15:24.774Z,82.09
2022-12-03T10:17:59.145Z,81.14
2022-12-03T10:20:31.930Z,80.63
2022-12-03T10:23:04.704Z,82.01
2022-12-03T10:25:51.025Z,81.55
2022-12-03T10:28:36.467Z,81.11
2022-12-03T10:31:10.492Z,82.56
2022-12-03T10:33:45.611Z,80.92
2022-12-03T10:36:24.151Z,82.10
2022-12-03T10:39:12.361Z,80.75
2022-12-03T10:41:45.916Z,82.01
2022-12-03T10:44:22.452Z,81.32
2022-12-03T10:47:07.556Z,81.38
2022-12-03T10:49:41.420Z,81.60
2022-12-03T10:52:25.901Z,81.69
2022-12-03T10:54:59.727Z,80.74
2022-12-03T10:57:33.162Z,80.71
2022-12-03T11:00:09.307Z,80.82
2022-12-03T11:02:42.100Z,80.11
2022-12-03T11:05:17.118Z,81.18
2022-12-03T11:07:49.874Z,79.66
2022-12-03T11:10:22.866Z,79.12
2022-12-03T11:13:34.241Z,79.80
2022-12-03T11:16:09.132Z,79.90
2022-12-03T11:19:01.977Z,79.68
2022-12-03T11:21:34.740Z,79.70
2022-12-03T11:24:28.322Z,79.15
2022-12-03T11:27:22.094Z,81.58
2022-12-03T11:30:02.573Z,81.00
2022-12-03T11:33:22.938Z,80.93
2022-12-03T11:36:16.589Z,80.73
2022-12-03T11:38:55.095Z,80.56
2022-12-03T11:41:35.759Z,80.55
2022-12-03T11:44:30.322Z,80.33
2022-12-03T11:47:15.009Z,79.69
2022-12-03T11:49:49.965Z,80.99
2022-12-03T11:52:31.621Z,81.27
2022-12-03T11:55:15.602Z,80.40
2022-12-03T11:57:48.518Z,80.35
2022-12-03T12:00:23.797Z,80.97
2022-12-03T12:02:58.686Z,80.91
2022-12-03T12:05:34.528Z,81.47
2022-12-03T12:08:20.480Z,80.80
2022-12-03T12:10:53.425Z,80.75
2022-12-03T12:13:49.901Z,81.35
2022-12-03T12:16:54.947Z,81.79
2022-12-03T12:19:44.074Z,82.24
2022-12-03T12:22:35.840Z,82.44
2022-12-03T12:25:36.944Z,81.08
2022-12-03T12:28:09.894Z,82.04
2022-12-03T12:30:42.899Z,81.89
2022-12-03T12:33:23.043Z,81.75
2022-12-03T12:35:56.053Z,81.32
2022-12-03T12:38:30.239Z,82.18
2022-12-03T12:41:08.446Z,82.21
2022-12-03T12:43:41.672Z,82.13
2022-12-03T12:46:46.228Z,83.45
2022-12-03T12:49:12.110Z,83.46
2022-12-03T12:51:45.957Z,82.77
2022-12-03T12:54:20.120Z,82.42
2022-12-03T12:56:53.117Z,82.95
2022-12-03T12:59:27.201Z,82.84
2022-12-03T13:02:04.521Z,82.41
2022-12-03T13:04:41.520Z,81.27
2022-12-03T13:07:14.820Z,82.80
2022-12-03T13:09:54.723Z,82.57
2022-12-03T13:12:27.686Z,83.17
2022-12-03T13:15:01.678Z,82.59
2022-12-03T13:17:34.500Z,83.59
2022-12-03T13:20:18.748Z,82.79
2022-12-03T13:22:51.593Z,83.23
2022-12-03T13:25:58.269Z,83.22
2022-12-03T13:28:30.778Z,83.46
2022-12-03T13:31:21.598Z,82.78
2022-12-03T13:33:56.318Z,82.77
2022-12-03T13:36:39.223Z,82.32
2022-12-03T13:39:20.156Z,82.91
2022-12-03T13:42:12.713Z,82.95
2022-12-03T13:44:48.083Z,82.99
2022-12-03T13:47:23.104Z,83.38
2022-12-03T13:49:58.980Z,83.11
2022-12-03T13:52:35.549Z,82.83
2022-12-03T13:55:12.571Z,82.86
2022-12-03T13:57:46.732Z,82.85
2022-12-03T14:00:20.522Z,83.52
2022-12-03T14:02:53.582Z,82.24
2022-12-03T14:05:27.673Z,82.94
2022-12-03T14:08:02.098Z,82.58
2022-12-03T14:10:35.332Z,83.39
2022-12-03T14:13:09.721Z,83.36
2022-12-03T14:15:42.538Z,82.44
2022-12-03T14:18:16.058Z,83.04
2022-12-03T14:20:49.144Z,83.46
2022-12-03T14:23:24.859Z,83.25
2022-12-03T14:25:57.671Z,83.30
2022-12-03T14:28:31.791Z,83.40
2022-12-03T14:31:04.611Z,83.89
2022-12-03T14:33:37.442Z,82.72
2022-12-03T14:36:10.736Z,83.20
2022-12-03T14:38:43.480Z,83.19
2022-12-03T14:41:33.931Z,83.30
2022-12-03T14:44:08.095Z,84.14
2022-12-03T14:46:40.854Z,83.51
2022-12-03T14:49:13.683Z,83.98
2022-12-03T14:51:46.444Z,82.61
2022-12-03T14:54:19.264Z,83.00
2022-12-03T14:56:52.095Z,83.45
2022-12-03T14:59:28.009Z,82.58
2022-12-03T15:02:01.378Z,82.85
2022-12-03T15:04:34.484Z,83.25
2022-12-03T15:07:07.766Z,83.12
2022-12-03T15:09:40.581Z,83.22
2022-12-03T15:12:13.361Z,83.78
2022-12-03T15:14:47.878Z,82.91
2022-12-03T15:17:29.448Z,83.17
2022-12-03T15:20:04.907Z,82.96
2022-12-03T15:22:37.685Z,83.22
2022-12-03T15:25:11.107Z,82.98
2022-12-03T15:27:43.853Z,82.74
2022-12-03T15:30:20.258Z,83.28
2022-12-03T15:32:53.060Z,83.66
2022-12-03T15:35:26.021Z,83.70
2022-12-03T15:37:59.066Z,84.10
2022-12-03T15:40:32.467Z,84.01
2022-12-03T15:43:05.491Z,83.85
2022-12-03T15:45:39.794Z,83.52
2022-12-03T15:48:13.964Z,83.74
2022-12-03T15:50:47.269Z,83.50
2022-12-03T15:53:20.076Z,83.60
2022-12-03T15:55:52.871Z,83.75
2022-12-03T15:58:25.667Z,83.02
2022-12-03T16:00:59.893Z,83.60
2022-12-03T16:03:32.720Z,83.81
2022-12-03T16:06:06.260Z,84.08
2022-12-03T16:08:39.195Z,83.20
2022-12-03T16:11:11.997Z,83.23
2022-12-03T16:13:45.041Z,83.05
2022-12-03T16:16:19.364Z,83.48
2022-12-03T16:18:52.180Z,83.90
2022-12-03T16:21:30.367Z,83.50
2022-12-03T16:24:03.228Z,83.76
2022-12-03T16:26:36.066Z,83.55
2022-12-03T16:29:09.099Z,83.31
2022-12-03T16:31:43.356Z,83.32
2022-12-03T16:34:16.195Z,83.42
2022-12-03T16:36:49.123Z,84.24
2022-12-03T16:39:22.055Z,83.47
2022-12-03T16:41:55.090Z,83.90
2022-12-03T16:44:53.782Z,83.34
2022-12-03T16:47:33.400Z,84.10
2022-12-03T16:50:14.141Z,83.64
2022-12-03T16:52:50.913Z,83.94
2022-12-03T16:55:23.681Z,83.85
2022-12-03T16:57:56.538Z,83.23
2022-12-03T17:00:29.786Z,83.89
2022-12-03T17:03:04.135Z,83.47
2022-12-03T17:05:37.066Z,83.48
2022-12-03T17:08:10.012Z,83.57
2022-12-03T17:10:44.544Z,83.54
2022-12-03T17:13:17.495Z,83.68
2022-12-03T17:15:50.559Z,83.49
2022-12-03T17:18:25.244Z,83.58
2022-12-03T17:20:58.076Z,83.38
2022-12-03T17:23:31.888Z,83.51
2022-12-03T17:26:04.849Z,83.67
2022-12-03T17:28:37.765Z,83.84
2022-12-03T17:31:11.711Z,84.20
2022-12-03T17:33:46.263Z,83.68
2022-12-03T17:36:19.190Z,83.71
2022-12-03T17:38:52.289Z,83.74
2022-12-03T17:41:26.155Z,83.68
2022-12-03T17:43:58.947Z,83.67
2022-12-03T17:46:32.006Z,84.35
2022-12-03T17:49:06.538Z,84.16
2022-12-03T17:51:39.703Z,84.22
2022-12-03T17:54:12.709Z,84.29
2022-12-03T17:56:46.241Z,84.65
2022-12-03T17:59:19.004Z,84.77
2022-12-03T18:01:51.953Z,84.19
2022-12-03T18:04:26.258Z,84.93
2022-12-03T18:07:02.390Z,84.71
2022-12-03T18:09:35.852Z,84.37
2022-12-03T18:12:08.853Z,84.20
2022-12-03T18:14:41.703Z,84.95
2022-12-03T18:17:14.839Z,84.83
2022-12-03T18:19:48.971Z,84.88
2022-12-03T18:22:21.879Z,84.67
2022-12-03T18:24:55.780Z,84.91
2022-12-03T18:27:28.617Z,84.95
2022-12-03T18:30:01.817Z,84.52
2022-12-03T18:32:34.600Z,85.20
2022-12-03T18:35:10.021Z,84.67
2022-12-03T18:37:42.907Z,84.43
2022-12-03T18:40:19.947Z,84.58
2022-12-03T18:42:52.973Z,84.44
2022-12-03T18:45:25.782Z,84.94
2022-12-03T18:47:58.660Z,85.05
2022-12-03T18:50:33.103Z,85.04
2022-12-03T18:53:05.949Z,85.20
2022-12-03T18:55:39.394Z,85.19
2022-12-03T18:58:12.404Z,85.12
2022-12-03T19:00:45.266Z,85.58
2022-12-03T19:03:18.415Z,85.47
2022-12-03T19:05:52.943Z,85.43
2022-12-03T19:08:26.074Z,85.35
2022-12-03T19:11:00.503Z,85.46
2022-12-03T19:13:33.367Z,85.14
2022-12-03T19:16:08.564Z,85.23
2022-12-03T19:18:41.559Z,86.02
2022-12-03T19:21:17.516Z,85.17
2022-12-03T19:24:16.409Z,84.96
2022-12-03T19:26:43.548Z,85.27
2022-12-03T19:29:16.418Z,85.28
2022-12-03T19:31:50.498Z,85.14
2022-12-03T19:34:24.218Z,84.83
2022-12-03T19:36:58.390Z,84.82
2022-12-03T19:39:31.734Z,84.96
2022-12-03T19:42:04.803Z,85.08
2022-12-03T19:44:37.754Z,84.92
2022-12-03T19:47:10.672Z,84.56
2022-12-03T19:49:43.465Z,85.01
2022-12-03T19:52:17.650Z,85.25
2022-12-03T19:54:50.640Z,84.82
2022-12-03T19:57:23.807Z,84.99
2022-12-03T19:59:57.167Z,84.96
2022-12-03T20:02:30.396Z,85.08
2022-12-03T20:05:03.417Z,84.47
2022-12-03T20:07:37.737Z,85.25
2022-12-03T20:10:11.251Z,85.01
2022-12-03T20:12:44.504Z,85.14
2022-12-03T20:15:17.512Z,85.16
2022-12-03T20:17:50.458Z,84.87
2022-12-03T20:20:23.628Z,85.26
2022-12-03T20:22:58.142Z,84.41
2022-12-03T20:25:31.011Z,85.16
2022-12-03T20:28:03.846Z,84.24
2022-12-03T20:30:36.764Z,84.01
2022-12-03T20:33:09.703Z,84.73
2022-12-03T20:35:42.570Z,85.07
2022-12-03T20:38:16.748Z,84.59
2022-12-03T20:40:50.159Z,84.60
2022-12-03T20:43:23.091Z,84.15
2022-12-03T20:46:02.408Z,85.01
2022-12-03T20:48:36.097Z,84.94
2022-12-03T20:51:10.846Z,84.09
2022-12-03T20:53:46.230Z,84.18
2022-12-03T20:56:21.520Z,85.18
2022-12-03T20:58:55.096Z,85.35
2022-12-03T21:01:29.246Z,84.68
2022-12-03T21:04:02.944Z,84.61
2022-12-03T21:06:37.816Z,84.95
2022-12-03T21:09:13.164Z,84.56
2022-12-03T21:11:46.461Z,84.55
2022-12-03T21:14:19.259Z,83.96
2022-12-03T21:17:07.971Z,84.55
2022-12-03T21:19:41.825Z,85.04
2022-12-03T21:22:14.631Z,84.95
2022-12-03T21:24:49.151Z,84.71
2022-12-03T21:27:22.118Z,84.66
2022-12-03T21:29:55.206Z,85.36
2022-12-03T21:32:28.293Z,85.23
2022-12-03T21:35:01.144Z,85.60
2022-12-03T21:37:34.265Z,85.29
2022-12-03T21:40:09.552Z,85.42
2022-12-03T21:42:42.528Z,85.11
2022-12-03T21:45:16.415Z,84.87
2022-12-03T21:47:49.356Z,85.15
2022-12-03T21:50:22.278Z,84.51
2022-12-03T21:52:55.656Z,84.81
2022-12-03T21:55:29.904Z,85.38
2022-12-03T21:58:02.751Z,85.17
2022-12-03T22:00:35.703Z,84.04
2022-12-03T22:03:08.610Z,84.53
2022-12-03T22:05:41.462Z,85.30
2022-12-03T22:08:14.435Z,85.03
2022-12-03T22:10:48.713Z,84.76
2022-12-03T22:13:21.664Z,85.29
2022-12-03T22:15:54.562Z,85.32
2022-12-03T22:18:27.481Z,85.37
2022-12-03T22:21:04.240Z,85.01
2022-12-03T22:23:37.331Z,85.41
2022-12-03T22:26:13.743Z,84.69
2022-12-03T22:28:49.530Z,85.23
2022-12-03T22:31:22.550Z,85.21
2022-12-03T22:33:55.399Z,84.91
2022-12-03T22:36:28.197Z,84.97
2022-12-03T22:39:01.079Z,85.25
2022-12-03T22:41:35.308Z,85.28
2022-12-03T22:44:08.283Z,85.11
2022-12-03T22:46:41.242Z,85.49
2022-12-03T22:49:14.707Z,85.22
2022-12-03T22:51:48.499Z,86.02
2022-12-03T22:54:24.115Z,86.06
2022-12-03T22:56:58.575Z,85.39
2022-12-03T22:59:31.679Z,85.45
2022-12-03T23:02:04.818Z,85.89
2022-12-03T23:04:37.693Z,85.98
2022-12-03T23:07:10.714Z,85.43
2022-12-03T23:09:43.533Z,86.32
2022-12-03T23:12:18.007Z,86.12
2022-12-03T23:14:54.071Z,86.33
2022-12-03T23:17:26.883Z,85.57
2022-12-03T23:19:59.679Z,86.02
2022-12-03T23:22:32.596Z,86.28
2022-12-03T23:25:07.258Z,85.87
2022-12-03T23:27:41.563Z,86.09
2022-12-03T23:30:16.583Z,86.05
2022-12-03T23:32:49.415Z,85.64
2022-12-03T23:35:22.275Z,85.99
2022-12-03T23:37:55.078Z,86.18
2022-12-03T23:40:27.939Z,85.25
2022-12-03T23:43:02.392Z,86.29
2022-12-03T23:45:35.784Z,85.40
2022-12-03T23:48:08.606Z,85.71
2022-12-03T23:50:42.196Z,85.88
2022-12-03T23:53:15.117Z,86.18
2022-12-03T23:55:47.996Z,85.72
2022-12-03T23:58:22.528Z,86.00
